createdAt,value
2023-09-17T00:01:36.329Z,75.30
2023-09-17T00:04:05.308Z,75.30
2023-09-17T00:06:32.854Z,75.30
2023-09-17T00:09:00.125Z,75.50
2023-09-17T00:11:28.532Z,75.60
2023-09-17T00:13:56.029Z,75.80
2023-09-17T00:16:23.627Z,75.70
2023-09-17T00:18:50.974Z,75.40
2023-09-17T00:21:18.317Z,75.40
2023-09-17T00:23:45.694Z,75.20
2023-09-17T00:26:12.998Z,75.50
2023-09-17T00:28:43.549Z,75.00
2023-09-17T00:31:10.957Z,74.50
2023-09-17T00:33:38.315Z,74.50
2023-09-17T00:36:05.771Z,75.00
2023-09-17T00:38:33.170Z,75.70
2023-09-17T00:41:02.368Z,76.00
2023-09-17T00:43:31.404Z,76.20
2023-09-17T00:45:58.913Z,76.30
2023-09-17T00:48:27.869Z,76.70
2023-09-17T00:50:56.675Z,76.60
2023-09-17T00:53:24.731Z,76.80
2023-09-17T00:55:52.530Z,76.70
2023-09-17T00:58:22.134Z,76.50
2023-09-17T01:00:49.813Z,76.30
2023-09-17T01:03:17.880Z,76.70
2023-09-17T01:05:46.059Z,76.90
2023-09-17T01:08:13.924Z,77.20
2023-09-17T01:10:41.521Z,76.80
2023-09-17T01:13:13.214Z,77.00
2023-09-17T01:15:40.602Z,76.80
2023-09-17T01:18:10.616Z,76.60
2023-09-17T01:20:53.811Z,77.10
2023-09-17T01:24:04.297Z,77.40
2023-09-17T01:26:34.190Z,76.70
2023-09-17T01:29:02.314Z,77.40
2023-09-17T01:31:30.418Z,77.90
2023-09-17T01:33:57.882Z,77.10
2023-09-17T01:36:34.380Z,76.50
2023-09-17T01:39:15.907Z,76.10
2023-09-17T01:41:45.975Z,76.70
2023-09-17T01:44:14.324Z,77.20
2023-09-17T01:46:43.124Z,77.70
2023-09-17T01:49:13.921Z,77.80
2023-09-17T01:51:42.526Z,78.20
2023-09-17T01:54:10.401Z,78.60
2023-09-17T01:56:42.772Z,78.20
2023-09-17T01:59:10.461Z,78.30
2023-09-17T02:01:38.245Z,78.40
2023-09-17T02:04:05.632Z,78.60
2023-09-17T02:06:33.217Z,78.60
2023-09-17T02:09:00.512Z,78.60
2023-09-17T02:11:29.127Z,78.90
2023-09-17T02:13:56.472Z,79.30
2023-09-17T02:16:23.969Z,79.30
2023-09-17T02:18:53.981Z,79.50
2023-09-17T02:21:21.667Z,79.70
2023-09-17T02:23:49.395Z,79.80
2023-09-17T02:26:16.963Z,79.90
2023-09-17T02:28:44.480Z,80.10
2023-09-17T02:31:12.910Z,79.80
2023-09-17T02:33:41.532Z,79.50
2023-09-17T02:36:09.108Z,79.40
2023-09-17T02:38:36.650Z,79.30
2023-09-17T02:41:04.497Z,79.80
2023-09-17T02:43:31.840Z,79.80
2023-09-17T02:45:59.176Z,80.10
2023-09-17T02:48:26.510Z,80.30
2023-09-17T02:50:53.903Z,79.90
2023-09-17T02:53:21.713Z,79.70
2023-09-17T02:55:49.194Z,79.30
2023-09-17T02:58:17.723Z,78.80
2023-09-17T03:00:45.770Z,78.40
2023-09-17T03:03:13.749Z,78.90
2023-09-17T03:05:41.198Z,79.00
2023-09-17T03:08:10.435Z,79.40
2023-09-17T03:10:45.812Z,79.70
2023-09-17T03:13:15.841Z,79.20
2023-09-17T03:15:45.392Z,79.40
2023-09-17T03:18:14.257Z,79.90
2023-09-17T03:20:43.867Z,80.30
2023-09-17T03:23:12.578Z,80.40
2023-09-17T03:25:39.928Z,80.60
2023-09-17T03:28:07.416Z,80.60
2023-09-17T03:30:35.075Z,80.80
2023-09-17T03:33:07.074Z,80.80
2023-09-17T03:35:42.501Z,80.70
2023-09-17T03:38:09.982Z,80.50
2023-09-17T03:40:37.537Z,81.00
2023-09-17T03:43:05.188Z,80.90
2023-09-17T03:45:33.387Z,80.50
2023-09-17T03:48:01.074Z,80.40
2023-09-17T03:50:29.656Z,80.00
2023-09-17T03:53:00.598Z,79.80
2023-09-17T03:55:29.486Z,79.90
2023-09-17T03:57:58.201Z,80.00
2023-09-17T04:00:28.971Z,80.00
2023-09-17T04:02:56.432Z,80.30
2023-09-17T04:05:25.212Z,80.20
2023-09-17T04:07:52.987Z,80.20
2023-09-17T04:10:20.675Z,80.40
2023-09-17T04:12:48.469Z,80.30
2023-09-17T04:15:21.259Z,79.40
2023-09-17T04:17:52.044Z,79.40
2023-09-17T04:20:20.641Z,80.00
2023-09-17T04:22:50.642Z,80.50
2023-09-17T04:25:21.272Z,80.30
2023-09-17T04:27:50.820Z,80.60
2023-09-17T04:30:21.087Z,81.00
2023-09-17T04:32:50.737Z,80.90
2023-09-17T04:35:19.129Z,80.80
2023-09-17T04:37:49.381Z,80.80
2023-09-17T04:40:19.401Z,80.60
2023-09-17T04:42:48.463Z,80.70
2023-09-17T04:45:37.619Z,80.40
2023-09-17T04:48:12.417Z,80.80
2023-09-17T04:50:46.428Z,80.80
2023-09-17T04:53:16.086Z,80.80
2023-09-17T04:55:45.714Z,80.60
2023-09-17T04:58:15.462Z,80.10
2023-09-17T05:00:45.703Z,80.00
2023-09-17T05:03:13.510Z,80.00
2023-09-17T05:05:42.085Z,80.10
2023-09-17T05:08:09.606Z,80.40
2023-09-17T05:10:37.043Z,80.30
2023-09-17T05:13:04.909Z,80.40
2023-09-17T05:15:34.016Z,80.30
2023-09-17T05:18:07.302Z,80.40
2023-09-17T05:20:36.445Z,80.50
2023-09-17T05:23:05.018Z,80.60
2023-09-17T05:25:33.994Z,81.00
2023-09-17T05:28:04.912Z,81.00
2023-09-17T05:30:32.749Z,80.80
2023-09-17T05:33:00.368Z,80.70
2023-09-17T05:35:30.111Z,81.10
2023-09-17T05:37:57.607Z,81.00
2023-09-17T05:40:25.182Z,81.10
2023-09-17T05:42:52.817Z,81.00
2023-09-17T05:45:20.453Z,81.30
2023-09-17T05:47:47.925Z,81.50
2023-09-17T05:50:15.443Z,81.50
2023-09-17T05:52:44.216Z,81.40
2023-09-17T05:55:12.356Z,81.00
2023-09-17T05:57:39.800Z,80.90
2023-09-17T06:00:08.816Z,81.10
2023-09-17T06:02:42.620Z,80.90
2023-09-17T06:05:14.505Z,80.80
2023-09-17T06:07:41.898Z,80.90
2023-09-17T06:10:10.188Z,80.80
2023-09-17T06:12:37.645Z,80.70
2023-09-17T06:15:07.423Z,80.10
2023-09-17T06:17:34.903Z,80.20
2023-09-17T06:20:02.716Z,79.70
2023-09-17T06:22:30.210Z,79.80
2023-09-17T06:24:58.909Z,79.50
2023-09-17T06:27:26.669Z,78.70
2023-09-17T06:29:54.076Z,78.10
2023-09-17T06:32:24.063Z,78.80
2023-09-17T06:34:51.601Z,78.40
2023-09-17T06:37:19.152Z,78.60
2023-09-17T06:39:48.587Z,78.10
2023-09-17T06:42:16.025Z,77.90
2023-09-17T06:44:43.446Z,77.40
2023-09-17T06:47:10.914Z,77.00
2023-09-17T06:49:38.397Z,76.70
2023-09-17T06:52:06.026Z,76.40
2023-09-17T06:54:33.442Z,75.50
2023-09-17T06:57:02.992Z,75.60
2023-09-17T06:59:30.411Z,76.20
2023-09-17T07:01:57.819Z,76.60
2023-09-17T07:04:25.396Z,76.10
2023-09-17T07:06:52.905Z,76.60
2023-09-17T07:09:20.349Z,76.40
2023-09-17T07:11:47.779Z,75.90
2023-09-17T07:14:15.411Z,75.80
2023-09-17T07:16:43.047Z,75.80
2023-09-17T07:19:10.616Z,76.10
2023-09-17T07:21:38.069Z,76.10
2023-09-17T07:24:05.703Z,75.80
2023-09-17T07:26:33.163Z,75.40
2023-09-17T07:29:00.638Z,73.80
2023-09-17T07:31:28.448Z,73.00
2023-09-17T07:33:55.893Z,71.70
2023-09-17T07:36:23.374Z,71.10
2023-09-17T07:38:50.743Z,71.10
2023-09-17T07:41:18.519Z,70.90
2023-09-17T07:43:45.898Z,70.20
2023-09-17T07:46:14.696Z,70.50
2023-09-17T07:48:42.340Z,70.70
2023-09-17T07:51:09.778Z,69.90
2023-09-17T07:53:37.131Z,70.50
2023-09-17T07:56:04.643Z,70.90
2023-09-17T07:58:32.190Z,70.40
2023-09-17T08:00:59.522Z,70.40
2023-09-17T08:03:27.016Z,71.00
2023-09-17T08:05:54.968Z,71.40
2023-09-17T08:08:22.305Z,71.30
2023-09-17T08:10:50.785Z,70.70
2023-09-17T08:13:18.378Z,70.70
2023-09-17T08:15:50.381Z,70.20
2023-09-17T08:18:18.257Z,70.00
2023-09-17T08:20:45.772Z,69.80
2023-09-17T08:23:14.343Z,70.00
2023-09-17T08:25:42.007Z,70.30
2023-09-17T08:28:14.400Z,70.30
2023-09-17T08:30:42.017Z,69.80
2023-09-17T08:33:12.090Z,69.40
2023-09-17T08:35:39.911Z,68.40
2023-09-17T08:38:07.355Z,68.80
2023-09-17T08:40:36.089Z,68.70
2023-09-17T08:43:05.424Z,69.10
2023-09-17T08:45:33.272Z,68.70
2023-09-17T08:48:00.827Z,68.70
2023-09-17T08:50:32.069Z,68.40
2023-09-17T08:53:03.628Z,68.10
2023-09-17T08:55:32.412Z,68.90
2023-09-17T08:58:06.708Z,68.30
2023-09-17T09:00:38.835Z,68.70
2023-09-17T09:03:09.163Z,69.20
2023-09-17T09:05:37.368Z,69.20
2023-09-17T09:08:06.189Z,68.70
2023-09-17T09:10:33.653Z,69.50
2023-09-17T09:13:02.330Z,68.10
2023-09-17T09:15:31.104Z,68.20
2023-09-17T09:17:58.532Z,68.10
2023-09-17T09:20:26.066Z,68.70
2023-09-17T09:22:53.425Z,67.30
2023-09-17T09:25:20.798Z,67.70
2023-09-17T09:27:48.112Z,67.60
2023-09-17T09:30:16.562Z,66.00
2023-09-17T09:32:44.847Z,68.00
2023-09-17T09:35:12.640Z,66.50
2023-09-17T09:37:40.363Z,67.10
2023-09-17T09:40:08.687Z,68.10
2023-09-17T09:42:36.786Z,68.00
2023-09-17T09:45:04.739Z,66.70
2023-09-17T09:47:32.921Z,66.80
2023-09-17T09:50:02.694Z,65.90
2023-09-17T09:52:30.230Z,65.10
2023-09-17T09:54:58.961Z,62.50
2023-09-17T09:57:26.855Z,62.00
2023-09-17T09:59:54.831Z,58.80
2023-09-17T10:02:23.167Z,59.80
2023-09-17T10:04:50.959Z,58.00
2023-09-17T10:07:18.843Z,57.80
2023-09-17T10:09:47.528Z,56.30
2023-09-17T10:12:15.582Z,57.40
2023-09-17T10:14:43.811Z,53.10
2023-09-17T10:17:12.158Z,54.60
2023-09-17T10:19:41.806Z,53.90
2023-09-17T10:22:11.151Z,53.90
2023-09-17T10:24:40.387Z,51.90
2023-09-17T10:27:08.467Z,53.40
2023-09-17T10:29:37.076Z,51.70
2023-09-17T10:32:05.507Z,48.10
2023-09-17T10:34:35.157Z,49.30
2023-09-17T10:37:04.746Z,49.30
2023-09-17T10:39:36.562Z,49.20
2023-09-17T10:42:09.506Z,48.60
2023-09-17T10:44:41.133Z,49.00
2023-09-17T10:47:12.687Z,50.30
2023-09-17T10:49:41.631Z,50.00
2023-09-17T10:52:10.808Z,50.00
2023-09-17T10:54:38.348Z,49.50
2023-09-17T10:57:15.357Z,48.20
2023-09-17T10:59:43.452Z,48.10
2023-09-17T11:02:11.653Z,48.70
2023-09-17T11:04:41.437Z,47.60
2023-09-17T11:07:10.292Z,48.10
2023-09-17T11:09:37.886Z,48.60
2023-09-17T11:12:05.956Z,48.40
2023-09-17T11:14:33.431Z,48.60
2023-09-17T11:17:02.265Z,49.30
2023-09-17T11:19:29.762Z,50.70
2023-09-17T11:22:03.237Z,49.00
2023-09-17T11:24:33.347Z,47.10
2023-09-17T11:27:05.870Z,45.90
2023-09-17T11:29:43.848Z,47.20
2023-09-17T11:32:12.909Z,46.60
2023-09-17T11:34:43.819Z,46.60
2023-09-17T11:37:14.244Z,45.30
2023-09-17T11:39:51.730Z,45.80
2023-09-17T11:42:19.287Z,45.50
2023-09-17T11:44:47.140Z,46.20
2023-09-17T11:47:15.635Z,45.70
2023-09-17T11:49:43.973Z,43.50
2023-09-17T11:52:12.542Z,44.50
2023-09-17T11:54:52.295Z,46.20
2023-09-17T11:57:27.470Z,45.80
2023-09-17T11:59:56.345Z,47.40
2023-09-17T12:02:24.497Z,46.60
2023-09-17T12:04:53.470Z,45.90
2023-09-17T12:07:21.826Z,43.20
2023-09-17T12:10:02.695Z,43.20
2023-09-17T12:12:36.996Z,43.50
2023-09-17T12:15:06.092Z,43.90
2023-09-17T12:17:43.809Z,42.40
2023-09-17T12:20:32.104Z,44.80
2023-09-17T12:23:04.247Z,42.70
2023-09-17T12:25:44.188Z,43.90
2023-09-17T12:28:11.875Z,43.80
2023-09-17T12:30:40.019Z,40.40
2023-09-17T12:33:07.790Z,41.30
2023-09-17T12:35:36.165Z,39.40
2023-09-17T12:38:04.823Z,40.40
2023-09-17T12:40:32.672Z,40.80
2023-09-17T12:43:02.331Z,41.40
2023-09-17T12:45:30.080Z,41.40
2023-09-17T12:47:59.661Z,42.00
2023-09-17T12:50:29.143Z,43.20
2023-09-17T12:52:59.436Z,43.50
2023-09-17T12:55:28.306Z,42.40
2023-09-17T12:57:56.020Z,44.30
2023-09-17T13:00:24.295Z,43.60
2023-09-17T13:02:55.466Z,44.00
2023-09-17T13:05:23.625Z,46.00
2023-09-17T13:07:51.312Z,45.50
2023-09-17T13:10:22.675Z,43.70
2023-09-17T13:12:52.372Z,44.70
2023-09-17T13:15:20.047Z,41.70
2023-09-17T13:17:48.343Z,40.50
2023-09-17T13:20:17.737Z,37.00
2023-09-17T13:22:49.553Z,36.60
2023-09-17T13:25:17.671Z,36.40
2023-09-17T13:27:45.079Z,37.40
2023-09-17T13:30:12.952Z,38.40
2023-09-17T13:32:40.346Z,38.90
2023-09-17T13:35:12.058Z,40.50
2023-09-17T13:37:40.621Z,42.10
2023-09-17T13:40:08.619Z,42.60
2023-09-17T13:42:36.753Z,42.30
2023-09-17T13:45:04.228Z,44.10
2023-09-17T13:47:32.036Z,43.80
2023-09-17T13:49:59.870Z,43.40
2023-09-17T13:52:28.856Z,44.20
2023-09-17T13:54:56.797Z,43.70
2023-09-17T13:57:24.472Z,42.20
2023-09-17T13:59:53.470Z,40.20
2023-09-17T14:02:21.893Z,38.40
2023-09-17T14:07:17.086Z,32.70
2023-09-17T14:09:44.467Z,29.90
2023-09-17T14:12:11.802Z,28.30
2023-09-17T14:14:39.539Z,28.00
2023-09-17T14:17:07.639Z,27.90
2023-09-17T14:19:35.885Z,26.90
2023-09-17T14:22:04.080Z,26.80
2023-09-17T14:24:31.345Z,24.90
2023-09-17T14:26:58.622Z,25.60
2023-09-17T14:29:26.480Z,25.00
2023-09-17T14:31:55.196Z,26.70
2023-09-17T14:34:23.252Z,27.30
2023-09-17T14:36:51.658Z,26.60
2023-09-17T14:39:19.495Z,26.00
2023-09-17T14:41:46.946Z,26.00
2023-09-17T14:44:14.437Z,25.20
2023-09-17T14:46:41.849Z,24.40
2023-09-17T14:49:09.313Z,24.20
2023-09-17T14:54:04.914Z,24.70
2023-09-17T14:56:32.339Z,23.30
2023-09-17T14:58:59.738Z,23.50
2023-09-17T15:04:00.927Z,23.20
2023-09-17T15:06:30.527Z,23.00
2023-09-17T15:08:58.005Z,23.10
2023-09-17T15:11:25.473Z,22.70
2023-09-17T15:13:53.666Z,22.20
2023-09-17T15:16:21.879Z,22.60
2023-09-17T15:18:49.734Z,23.00
2023-09-17T15:21:17.543Z,23.10
2023-09-17T15:23:44.848Z,22.90
2023-09-17T15:26:12.158Z,23.50
2023-09-17T15:28:39.823Z,25.60
2023-09-17T15:31:07.186Z,27.80
2023-09-17T15:33:34.743Z,30.20
2023-09-17T15:36:02.784Z,31.30
2023-09-17T15:38:30.309Z,31.20
2023-09-17T15:40:59.143Z,32.20
2023-09-17T15:43:26.573Z,33.50
2023-09-17T15:45:55.215Z,34.50
2023-09-17T15:48:22.630Z,35.30
2023-09-17T15:50:52.697Z,36.80
2023-09-17T15:53:20.397Z,37.90
2023-09-17T15:55:48.140Z,38.50
2023-09-17T15:58:17.175Z,39.80
2023-09-17T16:00:45.022Z,39.10
2023-09-17T16:03:12.777Z,38.90
2023-09-17T16:05:42.821Z,36.70
2023-09-17T16:08:11.734Z,34.60
2023-09-17T16:10:39.390Z,33.80
2023-09-17T16:13:07.385Z,32.60
2023-09-17T16:15:34.740Z,31.00
2023-09-17T16:18:03.803Z,29.80
2023-09-17T16:20:31.385Z,29.20
2023-09-17T16:22:59.160Z,29.20
2023-09-17T16:25:26.751Z,28.90
2023-09-17T16:27:55.161Z,29.40
2023-09-17T16:30:23.732Z,30.10
2023-09-17T16:32:51.302Z,30.00
2023-09-17T16:35:19.234Z,30.30
2023-09-17T16:37:46.776Z,30.60
2023-09-17T16:40:14.064Z,31.00
2023-09-17T16:42:47.889Z,31.70
2023-09-17T16:45:25.308Z,32.50
2023-09-17T16:47:53.160Z,33.40
2023-09-17T16:50:20.684Z,34.90
2023-09-17T16:52:48.592Z,35.90
2023-09-17T16:55:15.981Z,37.90
2023-09-17T16:57:43.281Z,38.80
2023-09-17T17:00:11.107Z,39.80
2023-09-17T17:02:38.623Z,41.10
2023-09-17T17:05:08.321Z,42.10
2023-09-17T17:07:36.030Z,43.20
2023-09-17T17:10:03.583Z,43.90
2023-09-17T17:12:31.008Z,44.50
2023-09-17T17:14:58.326Z,45.30
2023-09-17T17:17:25.785Z,45.90
2023-09-17T17:19:54.833Z,45.60
2023-09-17T17:22:22.667Z,46.90
2023-09-17T17:24:50.197Z,46.10
2023-09-17T17:27:17.726Z,47.60
2023-09-17T17:29:45.245Z,48.10
2023-09-17T17:32:12.680Z,48.40
2023-09-17T17:34:40.302Z,48.40
2023-09-17T17:37:07.695Z,48.20
2023-09-17T17:39:35.123Z,48.50
2023-09-17T17:42:02.577Z,48.70
2023-09-17T17:44:30.567Z,49.60
2023-09-17T17:46:58.154Z,49.80
2023-09-17T17:49:25.459Z,50.30
2023-09-17T17:51:52.817Z,49.90
2023-09-17T17:54:20.144Z,51.10
2023-09-17T17:56:48.032Z,51.20
2023-09-17T17:59:15.616Z,51.00
2023-09-17T18:01:44.000Z,51.00
2023-09-17T18:04:11.990Z,51.80
2023-09-17T18:06:39.370Z,52.90
2023-09-17T18:09:06.676Z,52.00
2023-09-17T18:11:34.017Z,52.00
2023-09-17T18:14:01.725Z,52.40
2023-09-17T18:16:29.546Z,53.70
2023-09-17T18:18:56.995Z,54.60
2023-09-17T18:21:24.828Z,54.60
2023-09-17T18:23:52.462Z,54.80
2023-09-17T18:26:20.223Z,55.60
2023-09-17T18:28:47.635Z,56.40
2023-09-17T18:31:16.026Z,56.30
2023-09-17T18:33:44.462Z,55.20
2023-09-17T18:36:13.386Z,55.40
2023-09-17T18:38:40.979Z,55.40
2023-09-17T18:41:08.909Z,55.80
2023-09-17T18:43:37.352Z,55.30
2023-09-17T18:46:08.897Z,55.80
2023-09-17T18:48:39.045Z,56.40
2023-09-17T18:51:06.964Z,55.80
2023-09-17T18:53:37.005Z,56.40
2023-09-17T18:56:04.796Z,57.90
2023-09-17T18:58:32.300Z,57.70
2023-09-17T19:01:00.190Z,58.50
2023-09-17T19:03:29.868Z,59.90
2023-09-17T19:05:59.663Z,59.90
2023-09-17T19:08:27.139Z,58.80
2023-09-17T19:10:54.764Z,58.90
2023-09-17T19:13:22.125Z,59.50
2023-09-17T19:15:49.465Z,59.80
2023-09-17T19:18:21.011Z,60.30
2023-09-17T19:20:49.775Z,60.40
2023-09-17T19:23:17.114Z,59.90
2023-09-17T19:25:44.428Z,60.40
2023-09-17T19:28:11.951Z,60.20
2023-09-17T19:30:39.330Z,59.30
2023-09-17T19:33:06.914Z,59.70
2023-09-17T19:35:34.368Z,60.20
2023-09-17T19:38:04.848Z,60.90
2023-09-17T19:40:33.288Z,61.00
2023-09-17T19:43:02.183Z,61.40
2023-09-17T19:45:29.565Z,60.40
2023-09-17T19:47:57.094Z,60.20
2023-09-17T19:50:25.149Z,60.60
2023-09-17T19:52:52.717Z,61.00
2023-09-17T19:55:20.168Z,60.20
2023-09-17T19:57:49.027Z,60.50
2023-09-17T20:00:16.467Z,62.20
2023-09-17T20:02:44.831Z,61.60
2023-09-17T20:05:12.353Z,61.70
2023-09-17T20:07:39.698Z,62.10
2023-09-17T20:10:14.693Z,62.40
2023-09-17T20:12:43.097Z,62.20
2023-09-17T20:15:10.410Z,61.90
2023-09-17T20:17:37.738Z,60.90
2023-09-17T20:20:05.832Z,61.70
2023-09-17T20:22:45.245Z,62.40
2023-09-17T20:25:15.501Z,62.30
2023-09-17T20:27:51.399Z,62.70
2023-09-17T20:30:18.734Z,63.70
2023-09-17T20:32:46.188Z,62.60
2023-09-17T20:35:13.654Z,63.40
2023-09-17T20:37:40.972Z,63.60
2023-09-17T20:40:08.667Z,62.90
2023-09-17T20:42:36.581Z,63.80
2023-09-17T20:45:04.226Z,64.00
2023-09-17T20:47:31.978Z,64.20
2023-09-17T20:49:59.488Z,64.00
2023-09-17T20:52:26.841Z,63.70
2023-09-17T20:54:54.170Z,63.80
2023-09-17T20:57:23.372Z,64.40
2023-09-17T20:59:50.731Z,64.40
2023-09-17T21:02:18.191Z,63.80
2023-09-17T21:04:46.241Z,63.60
2023-09-17T21:07:13.614Z,63.50
2023-09-17T21:09:41.208Z,63.30
2023-09-17T21:12:09.386Z,62.80
2023-09-17T21:14:38.142Z,63.70
2023-09-17T21:17:06.107Z,63.40
2023-09-17T21:19:33.703Z,62.20
2023-09-17T21:22:01.018Z,62.90
2023-09-17T21:24:28.484Z,63.20
2023-09-17T21:26:56.097Z,63.80
2023-09-17T21:29:26.145Z,63.10
2023-09-17T21:31:53.600Z,62.20
2023-09-17T21:34:21.737Z,62.20
2023-09-17T21:36:50.661Z,63.40
2023-09-17T21:39:18.284Z,62.50
2023-09-17T21:41:45.646Z,62.80
2023-09-17T21:44:13.005Z,62.90
2023-09-17T21:46:40.593Z,64.20
2023-09-17T21:49:08.456Z,63.10
2023-09-17T21:51:35.824Z,64.80
2023-09-17T21:54:03.270Z,64.20
2023-09-17T21:56:30.615Z,63.60
2023-09-17T21:58:57.991Z,63.90
2023-09-17T22:01:28.771Z,64.00
2023-09-17T22:03:56.228Z,65.10
2023-09-17T22:06:23.736Z,64.70
2023-09-17T22:08:51.320Z,65.10
2023-09-17T22:11:20.392Z,65.70
2023-09-17T22:13:47.811Z,65.80
2023-09-17T22:16:15.322Z,65.90
2023-09-17T22:18:42.673Z,65.80
2023-09-17T22:21:10.696Z,66.30
2023-09-17T22:23:39.067Z,66.00
2023-09-17T22:26:08.125Z,65.70
2023-09-17T22:28:35.785Z,65.50
2023-09-17T22:31:14.256Z,65.40
2023-09-17T22:33:44.296Z,65.70
2023-09-17T22:36:13.021Z,65.30
2023-09-17T22:38:45.330Z,65.80
2023-09-17T22:41:26.775Z,66.10
2023-09-17T22:43:56.105Z,65.40
2023-09-17T22:46:31.468Z,65.90
2023-09-17T22:48:59.199Z,65.80
2023-09-17T22:51:30.492Z,65.30
2023-09-17T22:54:00.490Z,65.30
2023-09-17T22:56:28.419Z,65.40
2023-09-17T22:58:55.812Z,65.80
2023-09-17T23:01:25.899Z,66.40
2023-09-17T23:03:53.231Z,66.40
2023-09-17T23:06:22.958Z,66.80
2023-09-17T23:08:50.590Z,67.60
2023-09-17T23:11:18.176Z,66.90
2023-09-17T23:13:45.465Z,66.90
2023-09-17T23:16:12.832Z,67.30
2023-09-17T23:18:40.557Z,67.80
2023-09-17T23:21:08.328Z,67.90
2023-09-17T23:23:35.602Z,68.40
2023-09-17T23:26:04.591Z,68.30
2023-09-17T23:28:37.913Z,68.40
2023-09-17T23:31:05.366Z,68.50
2023-09-17T23:33:34.385Z,68.30
2023-09-17T23:36:03.732Z,68.20
2023-09-17T23:38:31.495Z,68.00
2023-09-17T23:40:59.228Z,68.10
2023-09-17T23:43:26.911Z,68.30
2023-09-17T23:45:54.253Z,68.50
2023-09-17T23:48:21.636Z,68.60
2023-09-17T23:50:52.076Z,68.80
2023-09-17T23:53:19.476Z,69.00
2023-09-17T23:55:49.935Z,68.70
2023-09-17T23:58:18.247Z,68.90
